sensor_id;sensor_type;location;lat;lon;timestamp;P1;durP1;ratioP1;P2;durP2;ratioP2
2720;SDS011;1368;49.484;11.112;2023-02-12T00:02:24;69.47;;;41.57;;
2720;SDS011;1368;49.484;11.112;2023-02-12T00:04:49;67.10;;;42.63;;
2720;SDS011;1368;49.484;11.112;2023-02-12T00:07:15;73.43;;;45.70;;
2720;SDS011;1368;49.484;11.112;2023-02-12T00:09:40;70.40;;;42.90;;
2720;SDS011;1368;49.484;11.112;2023-02-12T00:12:06;69.03;;;41.23;;
2720;SDS011;1368;49.484;11.112;2023-02-12T00:14:32;67.17;;;43.40;;
2720;SDS011;1368;49.484;11.112;2023-02-12T00:16:58;72.90;;;44.60;;
2720;SDS011;1368;49.484;11.112;2023-02-12T00:19:24;63.30;;;41.07;;
2720;SDS011;1368;49.484;11.112;2023-02-12T00:21:50;62.67;;;39.00;;
2720;SDS011;1368;49.484;11.112;2023-02-12T00:24:15;64.33;;;39.20;;
2720;SDS011;1368;49.484;11.112;2023-02-12T00:26:41;62.57;;;40.90;;
2720;SDS011;1368;49.484;11.112;2023-02-12T00:29:06;66.43;;;38.60;;
2720;SDS011;1368;49.484;11.112;2023-02-12T00:31:32;65.57;;;38.83;;
2720;SDS011;1368;49.484;11.112;2023-02-12T00:33:58;62.57;;;38.80;;
2720;SDS011;1368;49.484;11.112;2023-02-12T00:36:25;66.23;;;40.57;;
2720;SDS011;1368;49.484;11.112;2023-02-12T00:38:52;70.07;;;43.50;;
2720;SDS011;1368;49.484;11.112;2023-02-12T00:41:19;72.23;;;44.10;;
2720;SDS011;1368;49.484;11.112;2023-02-12T00:43:45;57.93;;;38.33;;
2720;SDS011;1368;49.484;11.112;2023-02-12T00:46:11;68.30;;;40.03;;
2720;SDS011;1368;49.484;11.112;2023-02-12T00:48:37;69.80;;;40.97;;
2720;SDS011;1368;49.484;11.112;2023-02-12T00:51:03;69.43;;;42.43;;
2720;SDS011;1368;49.484;11.112;2023-02-12T00:53:29;71.77;;;43.37;;
2720;SDS011;1368;49.484;11.112;2023-02-12T00:55:55;74.77;;;43.20;;
2720;SDS011;1368;49.484;11.112;2023-02-12T00:58:21;73.87;;;45.53;;
2720;SDS011;1368;49.484;11.112;2023-02-12T01:00:47;80.17;;;46.57;;
2720;SDS011;1368;49.484;11.112;2023-02-12T01:03:13;74.43;;;45.30;;
2720;SDS011;1368;49.484;11.112;2023-02-12T01:05:39;77.53;;;45.30;;
2720;SDS011;1368;49.484;11.112;2023-02-12T01:08:04;68.43;;;42.63;;
2720;SDS011;1368;49.484;11.112;2023-02-12T01:10:30;77.10;;;43.17;;
2720;SDS011;1368;49.484;11.112;2023-02-12T01:12:56;67.63;;;41.73;;
2720;SDS011;1368;49.484;11.112;2023-02-12T01:15:21;62.20;;;39.80;;
2720;SDS011;1368;49.484;11.112;2023-02-12T01:17:47;60.00;;;37.03;;
2720;SDS011;1368;49.484;11.112;2023-02-12T01:20:17;60.20;;;38.03;;
2720;SDS011;1368;49.484;11.112;2023-02-12T01:22:44;61.40;;;37.00;;
2720;SDS011;1368;49.484;11.112;2023-02-12T01:25:10;50.90;;;35.90;;
2720;SDS011;1368;49.484;11.112;2023-02-12T01:27:36;57.77;;;37.07;;
2720;SDS011;1368;49.484;11.112;2023-02-12T01:30:02;54.50;;;34.97;;
2720;SDS011;1368;49.484;11.112;2023-02-12T01:32:28;65.07;;;38.57;;
2720;SDS011;1368;49.484;11.112;2023-02-12T01:34:54;64.00;;;38.03;;
2720;SDS011;1368;49.484;11.112;2023-02-12T01:37:19;61.77;;;38.67;;
2720;SDS011;1368;49.484;11.112;2023-02-12T01:39:45;58.97;;;38.73;;
2720;SDS011;1368;49.484;11.112;2023-02-12T01:42:11;70.80;;;40.17;;
2720;SDS011;1368;49.484;11.112;2023-02-12T01:44:42;63.17;;;39.60;;
2720;SDS011;1368;49.484;11.112;2023-02-12T01:47:10;64.30;;;39.90;;
2720;SDS011;1368;49.484;11.112;2023-02-12T01:49:43;62.20;;;37.30;;
2720;SDS011;1368;49.484;11.112;2023-02-12T01:54:42;65.80;;;40.50;;
2720;SDS011;1368;49.484;11.112;2023-02-12T01:57:08;69.83;;;40.40;;
2720;SDS011;1368;49.484;11.112;2023-02-12T01:59:35;70.97;;;40.57;;
2720;SDS011;1368;49.484;11.112;2023-02-12T02:02:02;67.67;;;40.10;;
2720;SDS011;1368;49.484;11.112;2023-02-12T02:04:30;69.10;;;40.47;;
2720;SDS011;1368;49.484;11.112;2023-02-12T02:07:01;71.03;;;40.57;;
2720;SDS011;1368;49.484;11.112;2023-02-12T02:09:28;62.53;;;39.03;;
2720;SDS011;1368;49.484;11.112;2023-02-12T02:11:57;63.30;;;40.97;;
2720;SDS011;1368;49.484;11.112;2023-02-12T02:14:41;66.57;;;38.77;;
2720;SDS011;1368;49.484;11.112;2023-02-12T02:20:29;64.40;;;39.53;;
2720;SDS011;1368;49.484;11.112;2023-02-12T02:26:34;74.27;;;40.20;;
2720;SDS011;1368;49.484;11.112;2023-02-12T02:29:19;69.07;;;40.80;;
2720;SDS011;1368;49.484;11.112;2023-02-12T02:32:09;64.47;;;36.37;;
2720;SDS011;1368;49.484;11.112;2023-02-12T02:37:26;68.30;;;40.30;;
2720;SDS011;1368;49.484;11.112;2023-02-12T02:40:24;67.40;;;40.00;;
2720;SDS011;1368;49.484;11.112;2023-02-12T02:43:00;60.37;;;38.47;;
2720;SDS011;1368;49.484;11.112;2023-02-12T02:48:04;67.27;;;39.60;;
2720;SDS011;1368;49.484;11.112;2023-02-12T02:50:39;63.63;;;37.97;;
2720;SDS011;1368;49.484;11.112;2023-02-12T02:53:12;58.17;;;38.70;;
2720;SDS011;1368;49.484;11.112;2023-02-12T02:55:48;73.60;;;39.60;;
2720;SDS011;1368;49.484;11.112;2023-02-12T02:58:19;56.43;;;36.10;;
2720;SDS011;1368;49.484;11.112;2023-02-12T03:00:56;65.73;;;37.77;;
2720;SDS011;1368;49.484;11.112;2023-02-12T03:03:31;59.20;;;35.90;;
2720;SDS011;1368;49.484;11.112;2023-02-12T03:06:04;55.10;;;36.13;;
2720;SDS011;1368;49.484;11.112;2023-02-12T03:08:36;62.73;;;36.90;;
2720;SDS011;1368;49.484;11.112;2023-02-12T03:11:11;68.03;;;37.23;;
2720;SDS011;1368;49.484;11.112;2023-02-12T03:13:47;61.13;;;36.70;;
2720;SDS011;1368;49.484;11.112;2023-02-12T03:16:17;60.40;;;37.03;;
2720;SDS011;1368;49.484;11.112;2023-02-12T03:18:54;55.47;;;37.07;;
2720;SDS011;1368;49.484;11.112;2023-02-12T03:21:31;59.60;;;35.30;;
2720;SDS011;1368;49.484;11.112;2023-02-12T03:24:09;56.73;;;35.87;;
2720;SDS011;1368;49.484;11.112;2023-02-12T03:26:58;61.20;;;38.20;;
2720;SDS011;1368;49.484;11.112;2023-02-12T03:29:28;62.70;;;37.33;;
2720;SDS011;1368;49.484;11.112;2023-02-12T03:34:49;55.43;;;34.23;;
2720;SDS011;1368;49.484;11.112;2023-02-12T03:37:39;59.60;;;36.60;;
2720;SDS011;1368;49.484;11.112;2023-02-12T03:40:10;62.83;;;37.10;;
2720;SDS011;1368;49.484;11.112;2023-02-12T03:45:31;59.70;;;36.53;;
2720;SDS011;1368;49.484;11.112;2023-02-12T03:48:20;66.10;;;38.27;;
2720;SDS011;1368;49.484;11.112;2023-02-12T03:50:53;61.80;;;38.93;;
2720;SDS011;1368;49.484;11.112;2023-02-12T03:53:24;72.80;;;39.43;;
2720;SDS011;1368;49.484;11.112;2023-02-12T03:55:52;70.67;;;39.90;;
2720;SDS011;1368;49.484;11.112;2023-02-12T03:58:22;67.60;;;40.67;;
2720;SDS011;1368;49.484;11.112;2023-02-12T04:00:49;78.87;;;41.90;;
2720;SDS011;1368;49.484;11.112;2023-02-12T04:03:15;68.23;;;39.70;;
2720;SDS011;1368;49.484;11.112;2023-02-12T04:05:41;65.27;;;39.80;;
2720;SDS011;1368;49.484;11.112;2023-02-12T04:08:07;66.97;;;40.37;;
2720;SDS011;1368;49.484;11.112;2023-02-12T04:10:37;71.67;;;39.67;;
2720;SDS011;1368;49.484;11.112;2023-02-12T04:15:47;74.23;;;42.00;;
2720;SDS011;1368;49.484;11.112;2023-02-12T04:18:30;70.40;;;39.60;;
2720;SDS011;1368;49.484;11.112;2023-02-12T04:21:11;75.50;;;42.43;;
2720;SDS011;1368;49.484;11.112;2023-02-12T04:24:04;67.37;;;39.43;;
2720;SDS011;1368;49.484;11.112;2023-02-12T04:27:10;73.33;;;41.60;;
2720;SDS011;1368;49.484;11.112;2023-02-12T04:30:06;74.57;;;40.47;;
2720;SDS011;1368;49.484;11.112;2023-02-12T04:32:51;75.80;;;41.10;;
2720;SDS011;1368;49.484;11.112;2023-02-12T04:35:31;74.27;;;41.50;;
2720;SDS011;1368;49.484;11.112;2023-02-12T04:38:15;66.53;;;38.87;;
2720;SDS011;1368;49.484;11.112;2023-02-12T04:40:45;69.03;;;39.23;;
2720;SDS011;1368;49.484;11.112;2023-02-12T04:43:13;74.53;;;40.50;;
2720;SDS011;1368;49.484;11.112;2023-02-12T04:45:38;81.23;;;41.83;;
2720;SDS011;1368;49.484;11.112;2023-02-12T04:48:04;78.97;;;43.43;;
2720;SDS011;1368;49.484;11.112;2023-02-12T04:50:36;75.33;;;43.77;;
2720;SDS011;1368;49.484;11.112;2023-02-12T04:53:04;69.30;;;39.70;;
2720;SDS011;1368;49.484;11.112;2023-02-12T04:55:29;74.80;;;41.90;;
2720;SDS011;1368;49.484;11.112;2023-02-12T04:57:55;72.47;;;40.27;;
2720;SDS011;1368;49.484;11.112;2023-02-12T05:00:20;65.13;;;38.10;;
2720;SDS011;1368;49.484;11.112;2023-02-12T05:02:46;67.03;;;38.73;;
2720;SDS011;1368;49.484;11.112;2023-02-12T05:05:12;69.30;;;41.00;;
2720;SDS011;1368;49.484;11.112;2023-02-12T05:07:37;60.30;;;36.13;;
2720;SDS011;1368;49.484;11.112;2023-02-12T05:10:03;64.87;;;37.83;;
2720;SDS011;1368;49.484;11.112;2023-02-12T05:12:29;69.93;;;40.50;;
2720;SDS011;1368;49.484;11.112;2023-02-12T05:14:54;78.93;;;41.63;;
2720;SDS011;1368;49.484;11.112;2023-02-12T05:17:21;62.33;;;36.60;;
2720;SDS011;1368;49.484;11.112;2023-02-12T05:19:47;69.83;;;40.00;;
2720;SDS011;1368;49.484;11.112;2023-02-12T05:22:13;65.27;;;38.83;;
2720;SDS011;1368;49.484;11.112;2023-02-12T05:24:38;73.67;;;43.03;;
2720;SDS011;1368;49.484;11.112;2023-02-12T05:27:04;68.37;;;40.17;;
2720;SDS011;1368;49.484;11.112;2023-02-12T05:29:30;66.60;;;42.60;;
2720;SDS011;1368;49.484;11.112;2023-02-12T05:31:55;87.27;;;44.80;;
2720;SDS011;1368;49.484;11.112;2023-02-12T05:34:21;82.00;;;42.53;;
2720;SDS011;1368;49.484;11.112;2023-02-12T05:36:47;70.43;;;42.20;;
2720;SDS011;1368;49.484;11.112;2023-02-12T05:39:12;86.47;;;45.33;;
2720;SDS011;1368;49.484;11.112;2023-02-12T05:41:38;66.70;;;40.40;;
2720;SDS011;1368;49.484;11.112;2023-02-12T05:44:04;83.40;;;49.13;;
2720;SDS011;1368;49.484;11.112;2023-02-12T05:46:30;69.47;;;41.97;;
2720;SDS011;1368;49.484;11.112;2023-02-12T05:48:56;65.60;;;38.53;;
2720;SDS011;1368;49.484;11.112;2023-02-12T05:51:23;79.30;;;42.37;;
2720;SDS011;1368;49.484;11.112;2023-02-12T05:53:50;75.80;;;42.53;;
2720;SDS011;1368;49.484;11.112;2023-02-12T05:56:21;82.80;;;46.47;;
2720;SDS011;1368;49.484;11.112;2023-02-12T05:58:55;94.30;;;46.63;;
2720;SDS011;1368;49.484;11.112;2023-02-12T06:01:28;88.97;;;45.10;;
2720;SDS011;1368;49.484;11.112;2023-02-12T06:03:56;73.30;;;43.63;;
2720;SDS011;1368;49.484;11.112;2023-02-12T06:06:24;84.40;;;47.37;;
2720;SDS011;1368;49.484;11.112;2023-02-12T06:08:50;78.03;;;43.37;;
2720;SDS011;1368;49.484;11.112;2023-02-12T06:11:16;78.07;;;43.87;;
2720;SDS011;1368;49.484;11.112;2023-02-12T06:13:42;95.80;;;48.67;;
2720;SDS011;1368;49.484;11.112;2023-02-12T06:16:21;115.13;;;52.87;;
2720;SDS011;1368;49.484;11.112;2023-02-12T06:18:48;77.47;;;41.57;;
2720;SDS011;1368;49.484;11.112;2023-02-12T06:21:14;86.27;;;44.93;;
2720;SDS011;1368;49.484;11.112;2023-02-12T06:23:40;76.10;;;41.83;;
2720;SDS011;1368;49.484;11.112;2023-02-12T06:26:06;77.03;;;41.90;;
2720;SDS011;1368;49.484;11.112;2023-02-12T06:28:32;100.87;;;49.87;;
2720;SDS011;1368;49.484;11.112;2023-02-12T06:30:58;73.67;;;42.57;;
2720;SDS011;1368;49.484;11.112;2023-02-12T06:33:24;75.43;;;42.87;;
2720;SDS011;1368;49.484;11.112;2023-02-12T06:35:49;107.17;;;55.80;;
2720;SDS011;1368;49.484;11.112;2023-02-12T06:38:15;83.37;;;45.83;;
2720;SDS011;1368;49.484;11.112;2023-02-12T06:40:41;105.30;;;50.27;;
2720;SDS011;1368;49.484;11.112;2023-02-12T06:43:06;108.97;;;49.97;;
2720;SDS011;1368;49.484;11.112;2023-02-12T06:45:32;96.07;;;51.07;;
2720;SDS011;1368;49.484;11.112;2023-02-12T06:47:58;83.40;;;46.23;;
2720;SDS011;1368;49.484;11.112;2023-02-12T06:50:23;105.27;;;50.67;;
2720;SDS011;1368;49.484;11.112;2023-02-12T06:52:49;95.37;;;47.50;;
2720;SDS011;1368;49.484;11.112;2023-02-12T06:55:15;112.90;;;51.03;;
2720;SDS011;1368;49.484;11.112;2023-02-12T06:57:40;122.60;;;54.20;;
2720;SDS011;1368;49.484;11.112;2023-02-12T07:00:06;90.17;;;49.00;;
2720;SDS011;1368;49.484;11.112;2023-02-12T07:02:32;72.10;;;42.30;;
2720;SDS011;1368;49.484;11.112;2023-02-12T07:04:58;78.67;;;45.70;;
2720;SDS011;1368;49.484;11.112;2023-02-12T07:07:24;83.20;;;43.97;;
2720;SDS011;1368;49.484;11.112;2023-02-12T07:09:49;81.00;;;44.27;;
2720;SDS011;1368;49.484;11.112;2023-02-12T07:12:15;73.23;;;42.47;;
2720;SDS011;1368;49.484;11.112;2023-02-12T07:14:40;78.43;;;43.60;;
2720;SDS011;1368;49.484;11.112;2023-02-12T07:17:06;100.20;;;50.50;;
2720;SDS011;1368;49.484;11.112;2023-02-12T07:19:33;104.00;;;49.80;;
2720;SDS011;1368;49.484;11.112;2023-02-12T07:21:59;92.90;;;46.27;;
2720;SDS011;1368;49.484;11.112;2023-02-12T07:24:24;82.67;;;45.07;;
2720;SDS011;1368;49.484;11.112;2023-02-12T07:26:50;92.97;;;48.07;;
2720;SDS011;1368;49.484;11.112;2023-02-12T07:29:15;82.40;;;45.50;;
2720;SDS011;1368;49.484;11.112;2023-02-12T07:31:41;69.73;;;42.10;;
2720;SDS011;1368;49.484;11.112;2023-02-12T07:34:06;92.37;;;49.20;;
2720;SDS011;1368;49.484;11.112;2023-02-12T07:36:33;89.77;;;46.80;;
2720;SDS011;1368;49.484;11.112;2023-02-12T07:38:59;77.30;;;43.20;;
2720;SDS011;1368;49.484;11.112;2023-02-12T07:41:29;80.57;;;45.67;;
2720;SDS011;1368;49.484;11.112;2023-02-12T07:44:06;82.63;;;44.53;;
2720;SDS011;1368;49.484;11.112;2023-02-12T07:46:38;93.50;;;48.20;;
2720;SDS011;1368;49.484;11.112;2023-02-12T07:49:06;78.00;;;45.80;;
2720;SDS011;1368;49.484;11.112;2023-02-12T07:51:35;75.07;;;43.67;;
2720;SDS011;1368;49.484;11.112;2023-02-12T07:54:01;76.00;;;42.20;;
2720;SDS011;1368;49.484;11.112;2023-02-12T07:56:29;76.00;;;45.33;;
2720;SDS011;1368;49.484;11.112;2023-02-12T07:58:57;85.00;;;47.30;;
2720;SDS011;1368;49.484;11.112;2023-02-12T08:01:25;73.87;;;42.50;;
2720;SDS011;1368;49.484;11.112;2023-02-12T08:04:11;88.57;;;45.90;;
2720;SDS011;1368;49.484;11.112;2023-02-12T08:06:40;75.67;;;42.77;;
2720;SDS011;1368;49.484;11.112;2023-02-12T08:09:08;87.90;;;46.07;;
2720;SDS011;1368;49.484;11.112;2023-02-12T08:11:35;76.33;;;44.90;;
2720;SDS011;1368;49.484;11.112;2023-02-12T08:14:02;86.80;;;47.67;;
2720;SDS011;1368;49.484;11.112;2023-02-12T08:16:28;83.37;;;47.33;;
2720;SDS011;1368;49.484;11.112;2023-02-12T08:18:55;72.90;;;42.57;;
2720;SDS011;1368;49.484;11.112;2023-02-12T08:21:23;66.33;;;39.63;;
2720;SDS011;1368;49.484;11.112;2023-02-12T08:23:52;65.93;;;41.67;;
2720;SDS011;1368;49.484;11.112;2023-02-12T08:26:20;57.70;;;36.33;;
2720;SDS011;1368;49.484;11.112;2023-02-12T08:28:58;66.37;;;39.67;;
2720;SDS011;1368;49.484;11.112;2023-02-12T08:31:32;65.30;;;40.97;;
2720;SDS011;1368;49.484;11.112;2023-02-12T08:34:00;71.90;;;43.10;;
2720;SDS011;1368;49.484;11.112;2023-02-12T08:36:26;78.43;;;42.07;;
2720;SDS011;1368;49.484;11.112;2023-02-12T08:38:55;70.27;;;43.90;;
2720;SDS011;1368;49.484;11.112;2023-02-12T08:41:24;79.00;;;46.20;;
2720;SDS011;1368;49.484;11.112;2023-02-12T08:43:51;69.37;;;44.27;;
2720;SDS011;1368;49.484;11.112;2023-02-12T08:46:19;74.43;;;44.93;;
2720;SDS011;1368;49.484;11.112;2023-02-12T08:48:53;66.90;;;38.80;;
2720;SDS011;1368;49.484;11.112;2023-02-12T08:51:22;69.63;;;43.00;;
2720;SDS011;1368;49.484;11.112;2023-02-12T08:53:50;81.60;;;47.73;;
2720;SDS011;1368;49.484;11.112;2023-02-12T08:56:18;81.60;;;47.07;;
2720;SDS011;1368;49.484;11.112;2023-02-12T08:58:45;87.77;;;46.57;;
2720;SDS011;1368;49.484;11.112;2023-02-12T09:01:11;83.57;;;45.53;;
2720;SDS011;1368;49.484;11.112;2023-02-12T09:03:40;78.50;;;45.97;;
2720;SDS011;1368;49.484;11.112;2023-02-12T09:06:05;78.30;;;45.50;;
2720;SDS011;1368;49.484;11.112;2023-02-12T09:08:32;81.87;;;47.67;;
2720;SDS011;1368;49.484;11.112;2023-02-12T09:10:57;96.97;;;49.50;;
2720;SDS011;1368;49.484;11.112;2023-02-12T09:13:23;93.87;;;48.43;;
2720;SDS011;1368;49.484;11.112;2023-02-12T09:15:49;85.50;;;48.03;;
2720;SDS011;1368;49.484;11.112;2023-02-12T09:18:15;87.97;;;47.43;;
2720;SDS011;1368;49.484;11.112;2023-02-12T09:20:42;86.77;;;46.57;;
2720;SDS011;1368;49.484;11.112;2023-02-12T09:23:09;95.57;;;47.30;;
2720;SDS011;1368;49.484;11.112;2023-02-12T09:25:41;83.47;;;45.60;;
2720;SDS011;1368;49.484;11.112;2023-02-12T09:28:07;93.47;;;47.37;;
2720;SDS011;1368;49.484;11.112;2023-02-12T09:30:34;78.23;;;44.07;;
2720;SDS011;1368;49.484;11.112;2023-02-12T09:33:01;83.37;;;45.17;;
2720;SDS011;1368;49.484;11.112;2023-02-12T09:35:27;91.77;;;48.73;;
2720;SDS011;1368;49.484;11.112;2023-02-12T09:37:53;85.63;;;46.67;;
2720;SDS011;1368;49.484;11.112;2023-02-12T09:45:24;84.87;;;44.57;;
2720;SDS011;1368;49.484;11.112;2023-02-12T09:47:56;75.63;;;42.77;;
2720;SDS011;1368;49.484;11.112;2023-02-12T09:50:42;88.80;;;44.67;;
2720;SDS011;1368;49.484;11.112;2023-02-12T09:53:16;87.50;;;44.63;;
2720;SDS011;1368;49.484;11.112;2023-02-12T09:55:45;79.17;;;43.10;;
2720;SDS011;1368;49.484;11.112;2023-02-12T09:58:16;75.30;;;42.53;;
2720;SDS011;1368;49.484;11.112;2023-02-12T10:00:47;81.33;;;40.00;;
2720;SDS011;1368;49.484;11.112;2023-02-12T10:03:16;73.53;;;41.33;;
2720;SDS011;1368;49.484;11.112;2023-02-12T10:05:44;65.00;;;31.60;;
2720;SDS011;1368;49.484;11.112;2023-02-12T10:08:32;65.57;;;33.57;;
2720;SDS011;1368;49.484;11.112;2023-02-12T10:11:15;62.43;;;35.40;;
2720;SDS011;1368;49.484;11.112;2023-02-12T10:25:27;48.37;;;29.40;;
2720;SDS011;1368;49.484;11.112;2023-02-12T10:27:59;56.83;;;30.70;;
2720;SDS011;1368;49.484;11.112;2023-02-12T10:30:39;54.57;;;30.67;;
2720;SDS011;1368;49.484;11.112;2023-02-12T10:33:16;55.67;;;31.50;;
2720;SDS011;1368;49.484;11.112;2023-02-12T10:35:53;52.60;;;29.90;;
2720;SDS011;1368;49.484;11.112;2023-02-12T10:38:27;52.67;;;31.67;;
2720;SDS011;1368;49.484;11.112;2023-02-12T10:40:57;45.97;;;28.00;;
2720;SDS011;1368;49.484;11.112;2023-02-12T10:43:25;55.23;;;31.87;;
2720;SDS011;1368;49.484;11.112;2023-02-12T10:45:52;52.40;;;30.97;;
2720;SDS011;1368;49.484;11.112;2023-02-12T10:48:19;42.90;;;26.40;;
2720;SDS011;1368;49.484;11.112;2023-02-12T10:51:02;49.27;;;29.67;;
2720;SDS011;1368;49.484;11.112;2023-02-12T10:53:39;59.37;;;32.80;;
2720;SDS011;1368;49.484;11.112;2023-02-12T10:56:19;61.10;;;31.30;;
2720;SDS011;1368;49.484;11.112;2023-02-12T11:04:44;56.27;;;30.00;;
2720;SDS011;1368;49.484;11.112;2023-02-12T11:07:05;49.97;;;29.47;;
2720;SDS011;1368;49.484;11.112;2023-02-12T11:09:42;56.77;;;31.70;;
2720;SDS011;1368;49.484;11.112;2023-02-12T11:17:43;53.77;;;30.30;;
2720;SDS011;1368;49.484;11.112;2023-02-12T11:20:20;52.63;;;30.93;;
2720;SDS011;1368;49.484;11.112;2023-02-12T11:25:17;53.83;;;30.17;;
2720;SDS011;1368;49.484;11.112;2023-02-12T11:27:43;49.80;;;30.47;;
2720;SDS011;1368;49.484;11.112;2023-02-12T11:32:37;56.47;;;31.60;;
2720;SDS011;1368;49.484;11.112;2023-02-12T11:35:14;57.40;;;30.37;;
2720;SDS011;1368;49.484;11.112;2023-02-12T11:37:42;52.57;;;29.27;;
2720;SDS011;1368;49.484;11.112;2023-02-12T11:40:23;55.67;;;30.40;;
2720;SDS011;1368;49.484;11.112;2023-02-12T11:42:52;50.63;;;28.70;;
2720;SDS011;1368;49.484;11.112;2023-02-12T11:45:36;52.87;;;30.33;;
2720;SDS011;1368;49.484;11.112;2023-02-12T11:48:22;44.57;;;26.73;;
2720;SDS011;1368;49.484;11.112;2023-02-12T11:50:54;50.73;;;28.50;;
2720;SDS011;1368;49.484;11.112;2023-02-12T11:53:23;44.40;;;28.60;;
2720;SDS011;1368;49.484;11.112;2023-02-12T11:55:54;45.37;;;27.40;;
2720;SDS011;1368;49.484;11.112;2023-02-12T11:58:25;46.00;;;28.70;;
2720;SDS011;1368;49.484;11.112;2023-02-12T12:01:00;48.00;;;27.10;;
2720;SDS011;1368;49.484;11.112;2023-02-12T12:06:31;50.10;;;29.77;;
2720;SDS011;1368;49.484;11.112;2023-02-12T12:09:03;47.80;;;26.33;;
2720;SDS011;1368;49.484;11.112;2023-02-12T12:14:27;50.67;;;29.53;;
2720;SDS011;1368;49.484;11.112;2023-02-12T12:16:59;50.00;;;29.80;;
2720;SDS011;1368;49.484;11.112;2023-02-12T12:20:04;56.30;;;31.67;;
2720;SDS011;1368;49.484;11.112;2023-02-12T12:22:38;52.77;;;31.80;;
2720;SDS011;1368;49.484;11.112;2023-02-12T12:25:30;51.63;;;30.83;;
2720;SDS011;1368;49.484;11.112;2023-02-12T12:28:23;50.47;;;29.73;;
2720;SDS011;1368;49.484;11.112;2023-02-12T12:31:11;50.77;;;31.03;;
2720;SDS011;1368;49.484;11.112;2023-02-12T12:33:43;44.17;;;28.83;;
2720;SDS011;1368;49.484;11.112;2023-02-12T12:42:27;49.83;;;30.97;;
2720;SDS011;1368;49.484;11.112;2023-02-12T13:04:04;50.63;;;29.07;;
2720;SDS011;1368;49.484;11.112;2023-02-12T13:13:23;59.63;;;31.97;;
2720;SDS011;1368;49.484;11.112;2023-02-12T13:18:32;56.63;;;33.97;;
2720;SDS011;1368;49.484;11.112;2023-02-12T13:26:31;55.60;;;32.60;;
2720;SDS011;1368;49.484;11.112;2023-02-12T13:29:03;49.27;;;30.03;;
2720;SDS011;1368;49.484;11.112;2023-02-12T13:31:38;53.40;;;30.47;;
2720;SDS011;1368;49.484;11.112;2023-02-12T13:34:12;52.57;;;31.00;;
2720;SDS011;1368;49.484;11.112;2023-02-12T13:36:40;49.70;;;31.47;;
2720;SDS011;1368;49.484;11.112;2023-02-12T13:39:11;50.30;;;29.80;;
2720;SDS011;1368;49.484;11.112;2023-02-12T13:41:44;47.63;;;29.77;;
2720;SDS011;1368;49.484;11.112;2023-02-12T13:44:31;47.27;;;29.40;;
2720;SDS011;1368;49.484;11.112;2023-02-12T13:47:09;53.67;;;29.67;;
2720;SDS011;1368;49.484;11.112;2023-02-12T13:50:05;52.20;;;31.30;;
2720;SDS011;1368;49.484;11.112;2023-02-12T13:52:56;52.03;;;31.30;;
2720;SDS011;1368;49.484;11.112;2023-02-12T13:56:00;54.73;;;29.57;;
2720;SDS011;1368;49.484;11.112;2023-02-12T14:01:11;50.57;;;31.10;;
2720;SDS011;1368;49.484;11.112;2023-02-12T14:04:12;53.20;;;28.90;;
2720;SDS011;1368;49.484;11.112;2023-02-12T14:06:50;49.43;;;30.60;;
2720;SDS011;1368;49.484;11.112;2023-02-12T14:09:37;48.30;;;27.87;;
2720;SDS011;1368;49.484;11.112;2023-02-12T14:12:16;55.93;;;33.03;;
2720;SDS011;1368;49.484;11.112;2023-02-12T14:15:06;48.63;;;29.97;;
2720;SDS011;1368;49.484;11.112;2023-02-12T14:24:55;53.93;;;30.17;;
2720;SDS011;1368;49.484;11.112;2023-02-12T14:27:24;49.27;;;29.77;;
2720;SDS011;1368;49.484;11.112;2023-02-12T14:35:34;47.90;;;26.73;;
2720;SDS011;1368;49.484;11.112;2023-02-12T14:40:36;48.70;;;28.00;;
2720;SDS011;1368;49.484;11.112;2023-02-12T14:48:50;44.57;;;27.23;;
2720;SDS011;1368;49.484;11.112;2023-02-12T14:54:26;47.53;;;29.67;;
2720;SDS011;1368;49.484;11.112;2023-02-12T14:56:54;45.93;;;26.13;;
2720;SDS011;1368;49.484;11.112;2023-02-12T14:59:23;47.27;;;26.73;;
2720;SDS011;1368;49.484;11.112;2023-02-12T15:01:50;36.93;;;25.17;;
2720;SDS011;1368;49.484;11.112;2023-02-12T15:04:23;47.40;;;28.47;;
2720;SDS011;1368;49.484;11.112;2023-02-12T15:06:52;48.17;;;27.40;;
2720;SDS011;1368;49.484;11.112;2023-02-12T15:09:28;41.37;;;25.80;;
2720;SDS011;1368;49.484;11.112;2023-02-12T15:15:04;42.20;;;26.60;;
2720;SDS011;1368;49.484;11.112;2023-02-12T15:17:37;47.20;;;27.97;;
2720;SDS011;1368;49.484;11.112;2023-02-12T15:22:40;43.33;;;27.40;;
2720;SDS011;1368;49.484;11.112;2023-02-12T15:27:53;42.80;;;25.97;;
2720;SDS011;1368;49.484;11.112;2023-02-12T15:30:24;45.47;;;27.23;;
2720;SDS011;1368;49.484;11.112;2023-02-12T15:32:51;45.27;;;27.33;;
2720;SDS011;1368;49.484;11.112;2023-02-12T15:35:27;41.50;;;26.47;;
2720;SDS011;1368;49.484;11.112;2023-02-12T15:37:55;46.10;;;27.53;;
2720;SDS011;1368;49.484;11.112;2023-02-12T15:40:24;40.93;;;26.00;;
2720;SDS011;1368;49.484;11.112;2023-02-12T15:45:25;44.27;;;26.40;;
2720;SDS011;1368;49.484;11.112;2023-02-12T15:48:11;44.73;;;26.10;;
2720;SDS011;1368;49.484;11.112;2023-02-12T15:50:54;41.40;;;26.00;;
2720;SDS011;1368;49.484;11.112;2023-02-12T15:53:44;43.17;;;26.10;;
2720;SDS011;1368;49.484;11.112;2023-02-12T15:56:17;48.20;;;27.30;;
2720;SDS011;1368;49.484;11.112;2023-02-12T15:58:55;48.03;;;26.90;;
2720;SDS011;1368;49.484;11.112;2023-02-12T16:01:40;43.83;;;27.20;;
2720;SDS011;1368;49.484;11.112;2023-02-12T16:04:28;43.33;;;25.73;;
2720;SDS011;1368;49.484;11.112;2023-02-12T16:06:57;46.73;;;27.00;;
2720;SDS011;1368;49.484;11.112;2023-02-12T16:09:28;44.20;;;28.63;;
2720;SDS011;1368;49.484;11.112;2023-02-12T16:11:58;45.93;;;29.10;;
2720;SDS011;1368;49.484;11.112;2023-02-12T16:14:42;47.87;;;28.77;;
2720;SDS011;1368;49.484;11.112;2023-02-12T16:22:44;50.67;;;28.13;;
2720;SDS011;1368;49.484;11.112;2023-02-12T16:25:16;45.40;;;28.03;;
2720;SDS011;1368;49.484;11.112;2023-02-12T16:27:48;47.80;;;27.37;;
2720;SDS011;1368;49.484;11.112;2023-02-12T16:30:30;46.87;;;28.67;;
2720;SDS011;1368;49.484;11.112;2023-02-12T16:32:58;52.50;;;30.53;;
2720;SDS011;1368;49.484;11.112;2023-02-12T16:35:26;49.30;;;29.87;;
2720;SDS011;1368;49.484;11.112;2023-02-12T16:37:58;52.57;;;30.10;;
2720;SDS011;1368;49.484;11.112;2023-02-12T16:44:36;56.70;;;32.13;;
2720;SDS011;1368;49.484;11.112;2023-02-12T16:46:52;56.53;;;33.40;;
2720;SDS011;1368;49.484;11.112;2023-02-12T16:49:21;60.30;;;34.20;;
2720;SDS011;1368;49.484;11.112;2023-02-12T16:51:49;58.00;;;34.07;;
2720;SDS011;1368;49.484;11.112;2023-02-12T16:54:25;57.33;;;33.27;;
2720;SDS011;1368;49.484;11.112;2023-02-12T16:56:51;53.50;;;33.03;;
2720;SDS011;1368;49.484;11.112;2023-02-12T16:59:17;54.93;;;33.30;;
2720;SDS011;1368;49.484;11.112;2023-02-12T17:01:43;62.30;;;34.60;;
2720;SDS011;1368;49.484;11.112;2023-02-12T17:04:34;51.30;;;33.17;;
2720;SDS011;1368;49.484;11.112;2023-02-12T17:07:00;50.60;;;33.43;;
2720;SDS011;1368;49.484;11.112;2023-02-12T17:09:25;55.00;;;33.50;;
2720;SDS011;1368;49.484;11.112;2023-02-12T17:11:54;62.20;;;41.60;;
2720;SDS011;1368;49.484;11.112;2023-02-12T17:14:20;59.83;;;36.73;;
2720;SDS011;1368;49.484;11.112;2023-02-12T17:16:46;62.93;;;38.10;;
2720;SDS011;1368;49.484;11.112;2023-02-12T17:19:13;54.10;;;33.90;;
2720;SDS011;1368;49.484;11.112;2023-02-12T17:21:40;65.70;;;41.93;;
2720;SDS011;1368;49.484;11.112;2023-02-12T17:26:53;69.00;;;42.30;;
2720;SDS011;1368;49.484;11.112;2023-02-12T17:29:19;65.73;;;40.67;;